Estación Meteorológica Peña el Pijo (Robertgarden) [ 12/14/19 08:40:23 CET ]

Fecha Hora Presion(HPa) Temp (°C) Humedad % Rocio (°C) Viento ( m/s) Direccion Lluvia 1Hora(mm) Lluvia 24H(mm) LLuvia Total(mm)
2019-Aug-11 01:01:49 1012.100 18.9 55 9.6         363.34
2019-Aug-11 02:01:46 1012.000 17.9 59 9.7         363.34
2019-Aug-11 03:01:39 1011.200 17.4 62 10.0         363.34
2019-Aug-11 04:01:37 1010.700 16.6 66 10.2         363.34
2019-Aug-11 05:01:36 1010.400 16.5 68 10.6         363.34
2019-Aug-11 06:01:39 1010.500 16.0 71 10.8         363.34
2019-Aug-11 07:01:54 1010.400 15.1 73 10.3         363.34
2019-Aug-11 08:01:57 1010.600 14.8 76 10.6         363.34
2019-Aug-11 09:01:56 1011.000 19.3 70 13.7         363.34
2019-Aug-11 10:01:53 1010.700 26.8 50 15.5         363.34
2019-Aug-11 11:01:45 1010.500 29.9 36 13.1         363.34
2019-Aug-11 12:01:51 1010.300 32.6 28 11.6 0.4 NNE     363.34
2019-Aug-11 13:01:50 1010.100 33.9 24 10.3         363.34
2019-Aug-11 14:01:50 1009.800 34.6 20 8.4         363.34
2019-Aug-11 15:01:53 1009.600 36.1 15 4.7         363.34
2019-Aug-11 16:01:43 1009.300 35.7 15 4.4 2.8 NW     363.34
2019-Aug-11 17:01:45 1009.300 34.3 19 7.2         363.34
2019-Aug-11 18:01:45 1009.300 33.2 21 7.9         363.34
2019-Aug-11 19:01:41 1009.200 32.0 22 7.5         363.34
2019-Aug-11 20:31:20 1009.900 27.2 24 4.7         363.34
2019-Aug-11 21:01:45 1010.200 26.4 26 5.1         363.34
2019-Aug-11 22:01:37 1010.700 23.9 28 4.2         363.34
2019-Aug-11 23:01:51 1011.300 21.0 35 4.8         363.34

Temperatura Máxima:36°    Temperatura Mínima:14°
Presión Máxima:1012.100 Hpa    Presión Mínima:1009.200 Hpa


Volver